createdAt,value
2023-04-21T00:01:14.857Z,11.73
2023-04-21T00:06:22.080Z,7.56
2023-04-21T00:11:29.541Z,6.48
2023-04-21T00:16:36.932Z,10.52
2023-04-21T00:21:44.329Z,6.90
2023-04-21T00:26:51.631Z,4.82
2023-04-21T00:31:59.124Z,12.29
2023-04-21T00:37:06.463Z,6.41
2023-04-21T00:42:13.901Z,11.54
2023-04-21T00:47:21.132Z,7.44
2023-04-21T00:52:28.551Z,5.47
2023-04-21T00:57:35.847Z,7.12
2023-04-21T01:02:43.499Z,5.93
2023-04-21T01:07:50.499Z,9.83
2023-04-21T01:12:57.841Z,7.05
2023-04-21T01:18:05.166Z,5.96
2023-04-21T01:23:12.431Z,6.57
2023-04-21T01:28:19.622Z,7.25
2023-04-21T01:33:27.081Z,3.83
2023-04-21T01:38:34.327Z,5.70
2023-04-21T01:43:41.727Z,5.28
2023-04-21T01:48:48.928Z,4.16
2023-04-21T01:53:56.319Z,5.75
2023-04-21T01:59:03.501Z,7.23
2023-04-21T02:04:10.947Z,7.65
2023-04-21T02:09:18.355Z,5.65
2023-04-21T02:14:24.904Z,11.30
2023-04-21T02:19:32.115Z,5.60
2023-04-21T02:24:39.570Z,6.05
2023-04-21T02:29:46.814Z,9.47
2023-04-21T02:34:54.235Z,4.03
2023-04-21T02:40:01.405Z,5.91
2023-04-21T02:45:08.796Z,3.97
2023-04-21T02:50:16.137Z,6.47
2023-04-21T02:55:23.440Z,6.15
2023-04-21T03:00:30.658Z,8.78
2023-04-21T03:05:38.034Z,5.46
2023-04-21T03:10:45.290Z,6.42
2023-04-21T03:15:52.761Z,4.62
2023-04-21T03:20:59.945Z,2.81
2023-04-21T03:26:07.448Z,3.63
2023-04-21T03:31:14.789Z,5.90
2023-04-21T03:36:22.153Z,3.53
2023-04-21T03:41:29.316Z,4.89
2023-04-21T03:46:36.742Z,8.39
2023-04-21T03:51:44.044Z,6.24
2023-04-21T03:56:51.431Z,8.08
2023-04-21T04:01:58.767Z,5.41
2023-04-21T04:07:06.196Z,9.11
2023-04-21T04:12:13.357Z,6.70
2023-04-21T04:17:20.662Z,5.59
2023-04-21T04:22:27.835Z,5.85
2023-04-21T04:27:35.204Z,4.95
2023-04-21T04:32:42.532Z,6.60
2023-04-21T04:37:49.969Z,3.38
2023-04-21T04:42:57.266Z,9.50
2023-04-21T04:48:04.859Z,4.25
2023-04-21T04:53:12.119Z,5.12
2023-04-21T04:58:19.410Z,9.56
2023-04-21T05:03:26.867Z,5.13
2023-04-21T05:08:34.202Z,17.71
2023-04-21T05:13:41.500Z,10.12
2023-04-21T05:18:48.839Z,7.31
2023-04-21T05:23:56.111Z,6.34
2023-04-21T05:29:03.461Z,7.45
2023-04-21T05:34:10.652Z,6.16
2023-04-21T05:39:18.042Z,6.77
2023-04-21T05:44:25.313Z,6.68
2023-04-21T05:49:32.729Z,3.92
2023-04-21T05:54:39.970Z,5.62
2023-04-21T05:59:47.335Z,5.08
2023-04-21T06:04:54.927Z,5.17
2023-04-21T06:10:02.016Z,4.54
2023-04-21T06:15:09.201Z,2.40
2023-04-21T06:20:16.679Z,3.84
2023-04-21T06:25:23.882Z,4.64
2023-04-21T06:30:31.363Z,6.99
2023-04-21T06:35:38.697Z,4.99
2023-04-21T06:40:46.189Z,4.15
2023-04-21T06:45:53.513Z,3.99
2023-04-21T06:51:00.976Z,2.14
2023-04-21T06:56:08.231Z,4.60
2023-04-21T07:01:15.813Z,5.07
2023-04-21T07:06:23.039Z,3.77
2023-04-21T07:11:30.501Z,5.35
2023-04-21T07:16:37.721Z,3.48
2023-04-21T07:21:45.061Z,6.62
2023-04-21T07:26:52.364Z,4.68
2023-04-21T07:31:59.844Z,5.87
2023-04-21T07:37:07.136Z,5.93
2023-04-21T07:42:14.515Z,8.25
2023-04-21T07:47:21.723Z,4.42
2023-04-21T07:52:29.694Z,5.76
2023-04-21T07:57:36.900Z,4.48
2023-04-21T08:02:44.480Z,4.52
2023-04-21T08:07:51.879Z,4.27
2023-04-21T08:12:59.242Z,4.08
2023-04-21T08:18:06.599Z,5.43
2023-04-21T08:23:14.034Z,4.70
2023-04-21T08:28:21.372Z,8.11
2023-04-21T08:33:28.811Z,2.10
2023-04-21T08:38:36.163Z,3.11
2023-04-21T08:43:43.550Z,4.24
2023-04-21T08:48:51.392Z,4.96
2023-04-21T08:53:57.880Z,3.21
2023-04-21T08:59:05.265Z,5.33
2023-04-21T09:04:12.780Z,6.48
2023-04-21T09:09:20.219Z,3.23
2023-04-21T09:14:27.437Z,6.29
2023-04-21T09:19:34.678Z,5.21
2023-04-21T09:24:42.224Z,3.53
2023-04-21T09:29:49.629Z,2.93
2023-04-21T09:34:57.115Z,6.07
2023-04-21T09:40:05.388Z,4.97
2023-04-21T09:55:25.541Z,3.12
2023-04-21T10:00:32.795Z,4.22
2023-04-21T10:05:42.388Z,8.73
2023-04-21T10:10:47.150Z,7.11
2023-04-21T10:15:54.640Z,4.00
2023-04-21T10:21:01.993Z,6.86
2023-04-21T10:26:09.332Z,3.08
2023-04-21T10:31:16.624Z,3.55
2023-04-21T10:36:23.978Z,4.28
2023-04-21T10:41:31.204Z,4.08
2023-04-21T10:46:39.645Z,6.07
2023-04-21T10:51:47.622Z,3.62
2023-04-21T10:56:55.027Z,3.67
2023-04-21T11:02:02.803Z,7.11
2023-04-21T11:07:10.056Z,4.17
2023-04-21T11:12:17.429Z,2.15
2023-04-21T11:17:25.024Z,4.12
2023-04-21T11:22:32.273Z,2.33
2023-04-21T11:27:39.676Z,2.45
2023-04-21T11:32:47.285Z,4.66
2023-04-21T11:37:54.773Z,3.85
2023-04-21T11:43:02.099Z,5.41
2023-04-21T11:48:09.478Z,3.86
2023-04-21T11:53:16.808Z,3.26
2023-04-21T11:58:24.235Z,4.91
2023-04-21T12:03:31.646Z,2.56
2023-04-21T12:08:41.794Z,3.50
2023-04-21T12:13:39.956Z,2.73
2023-04-21T12:18:47.348Z,3.27
2023-04-21T12:23:54.555Z,5.35
2023-04-21T12:29:02.081Z,3.42
2023-04-21T12:34:10.815Z,3.25
2023-04-21T12:39:18.258Z,4.00
2023-04-21T12:44:25.581Z,1.48
2023-04-21T12:49:32.976Z,3.17
2023-04-21T12:54:40.461Z,1.85
2023-04-21T12:59:47.892Z,5.81
2023-04-21T13:04:55.129Z,2.42
2023-04-21T13:10:02.531Z,5.21
2023-04-21T13:15:09.716Z,3.49
2023-04-21T13:20:17.064Z,4.43
2023-04-21T13:25:24.341Z,2.35
2023-04-21T13:30:31.788Z,5.81
2023-04-21T13:35:39.053Z,5.33
2023-04-21T13:40:46.476Z,2.12
2023-04-21T13:45:53.705Z,3.69
2023-04-21T13:51:01.284Z,3.04
2023-04-21T13:56:08.601Z,2.73
2023-04-21T14:01:16.129Z,3.73
2023-04-21T14:06:23.427Z,3.74
2023-04-21T14:11:30.881Z,2.57
2023-04-21T14:16:38.378Z,3.37
2023-04-21T14:21:45.064Z,3.73
2023-04-21T14:26:52.324Z,3.25
2023-04-21T14:31:59.764Z,2.21
2023-04-21T14:37:07.006Z,2.82
2023-04-21T14:42:14.458Z,3.73
2023-04-21T14:47:21.809Z,2.83
2023-04-21T14:52:29.145Z,4.17
2023-04-21T14:57:36.443Z,3.24
2023-04-21T15:02:43.783Z,2.33
2023-04-21T15:07:50.977Z,2.77
2023-04-21T15:12:58.438Z,3.44
2023-04-21T15:18:05.767Z,2.94
2023-04-21T15:23:13.136Z,2.50
2023-04-21T15:28:20.418Z,4.34
2023-04-21T15:33:27.855Z,3.90
2023-04-21T15:38:35.201Z,4.01
2023-04-21T15:43:42.608Z,3.18
2023-04-21T15:48:49.953Z,1.78
2023-04-21T15:53:57.486Z,3.78
2023-04-21T15:59:04.988Z,2.22
2023-04-21T16:04:12.557Z,3.09
2023-04-21T16:09:19.730Z,3.64
2023-04-21T16:14:28.074Z,2.23
2023-04-21T16:19:34.061Z,2.82
2023-04-21T16:24:42.258Z,2.17
2023-04-21T16:29:48.609Z,1.68
2023-04-21T16:34:56.124Z,3.18
2023-04-21T16:40:03.283Z,1.44
2023-04-21T16:45:10.807Z,3.52
2023-04-21T16:50:18.091Z,4.50
2023-04-21T16:55:25.410Z,2.64
2023-04-21T17:00:32.755Z,3.53
2023-04-21T17:05:40.166Z,2.69
2023-04-21T17:10:47.306Z,3.56
2023-04-21T17:15:54.764Z,2.17
2023-04-21T17:21:02.060Z,5.18
2023-04-21T17:26:12.353Z,2.70
2023-04-21T17:31:16.593Z,1.34
2023-04-21T17:36:23.211Z,4.07
2023-04-21T17:41:30.832Z,2.04
2023-04-21T17:46:38.378Z,2.37
2023-04-21T17:51:45.496Z,1.60
2023-04-21T17:56:52.890Z,2.15
2023-04-21T18:02:00.278Z,3.97
2023-04-21T18:07:07.728Z,1.95
2023-04-21T18:12:15.078Z,2.75
2023-04-21T18:17:22.463Z,2.03
2023-04-21T18:22:29.739Z,2.69
2023-04-21T18:27:37.277Z,5.54
2023-04-21T18:32:44.578Z,5.14
2023-04-21T18:37:52.100Z,5.45
2023-04-21T18:42:59.364Z,12.87
2023-04-21T18:48:06.912Z,4.41
2023-04-21T18:53:14.139Z,7.18
2023-04-21T18:58:21.705Z,12.76
2023-04-21T19:03:29.163Z,16.62
2023-04-21T19:08:42.654Z,15.85
2023-04-21T19:13:43.184Z,13.82
2023-04-21T19:18:50.630Z,8.01
2023-04-21T19:23:58.158Z,11.80
2023-04-21T19:29:05.253Z,9.49
2023-04-21T19:34:12.549Z,9.54
2023-04-21T19:39:19.924Z,6.07
2023-04-21T19:44:27.251Z,10.47
2023-04-21T19:49:34.737Z,6.16
2023-04-21T19:54:42.068Z,5.99
2023-04-21T19:59:49.383Z,3.35
2023-04-21T20:04:56.676Z,5.46
2023-04-21T20:10:04.042Z,9.35
2023-04-21T20:15:11.349Z,7.84
2023-04-21T20:20:18.924Z,7.48
2023-04-21T20:25:26.160Z,6.68
2023-04-21T20:30:33.471Z,18.96
2023-04-21T20:35:40.815Z,10.28
2023-04-21T20:40:48.207Z,10.61
2023-04-21T20:45:55.524Z,8.15
2023-04-21T20:51:02.868Z,8.98
2023-04-21T20:56:10.044Z,12.12
2023-04-21T21:01:17.500Z,27.90
2023-04-21T21:06:24.713Z,28.76
2023-04-21T21:11:32.090Z,24.49
2023-04-21T21:16:39.363Z,27.37
2023-04-21T21:21:46.747Z,17.07
2023-04-21T21:26:54.037Z,10.09
2023-04-21T21:32:01.586Z,10.99
2023-04-21T21:37:08.791Z,15.74
2023-04-21T21:42:16.214Z,15.87
2023-04-21T21:47:23.483Z,14.42
2023-04-21T21:52:30.763Z,12.52
2023-04-21T21:57:37.986Z,17.72
2023-04-21T22:02:45.550Z,19.58
2023-04-21T22:07:52.663Z,30.94
2023-04-21T22:12:59.991Z,35.96
2023-04-21T22:18:07.489Z,64.71
2023-04-21T22:23:14.770Z,36.96
2023-04-21T22:28:22.832Z,18.43
2023-04-21T22:33:30.189Z,30.80
2023-04-21T22:38:37.371Z,41.84
2023-04-21T22:43:44.651Z,59.87
2023-04-21T22:48:51.808Z,42.14
2023-04-21T22:53:59.169Z,31.60
2023-04-21T22:59:06.448Z,35.98
2023-04-21T23:04:13.915Z,38.02
2023-04-21T23:09:20.951Z,36.23
2023-04-21T23:14:28.292Z,32.75
2023-04-21T23:19:35.705Z,25.89
2023-04-21T23:24:43.024Z,33.98
2023-04-21T23:29:50.458Z,32.47
2023-04-21T23:34:58.051Z,24.30
2023-04-21T23:40:05.298Z,27.28
2023-04-21T23:45:12.631Z,20.69
2023-04-21T23:50:19.882Z,15.32
2023-04-21T23:55:27.355Z,14.40
